createdAt,value
2023-05-09T04:00:36.147Z,437.00
2023-05-09T04:01:39.529Z,432.00
2023-05-09T04:02:37.274Z,438.00
2023-05-09T04:03:37.194Z,452.00
2023-05-09T04:04:37.096Z,457.00
2023-05-09T04:05:37.100Z,471.00
2023-05-09T04:06:37.085Z,482.00
2023-05-09T04:07:37.095Z,491.00
2023-05-09T04:08:37.103Z,498.00
2023-05-09T04:09:37.052Z,501.00
2023-05-09T04:10:37.041Z,516.00
2023-05-09T04:11:37.043Z,523.00
2023-05-09T04:12:37.023Z,530.00
2023-05-09T04:13:37.003Z,546.00
2023-05-09T04:14:36.983Z,548.00
2023-05-09T04:15:36.978Z,555.00
2023-05-09T04:16:37.027Z,564.00
2023-05-09T04:17:36.979Z,572.00
2023-05-09T04:18:36.994Z,576.00
2023-05-09T04:19:36.946Z,590.00
2023-05-09T04:20:36.914Z,596.00
2023-05-09T04:21:36.914Z,600.00
2023-05-09T04:22:36.897Z,609.00
2023-05-09T04:23:36.893Z,617.00
2023-05-09T04:24:36.939Z,618.00
2023-05-09T04:25:36.883Z,627.00
2023-05-09T04:26:36.882Z,636.00
2023-05-09T04:27:36.873Z,641.00
2023-05-09T04:28:36.872Z,646.00
2023-05-09T04:29:36.813Z,653.00
2023-05-09T04:30:36.857Z,666.00
2023-05-09T04:31:36.921Z,661.00
2023-05-09T04:32:36.851Z,669.00
2023-05-09T04:33:36.801Z,679.00
2023-05-09T04:34:36.766Z,681.00
2023-05-09T04:35:36.759Z,686.00
2023-05-09T04:36:36.753Z,694.00
2023-05-09T04:37:36.729Z,694.00
2023-05-09T04:38:36.737Z,691.00
2023-05-09T04:39:36.743Z,707.00
2023-05-09T04:40:36.691Z,711.00
2023-05-09T04:41:36.699Z,716.00
2023-05-09T04:42:36.825Z,719.00
2023-05-09T04:43:36.767Z,724.00
2023-05-09T04:44:36.661Z,726.00
2023-05-09T04:45:36.631Z,734.00
2023-05-09T04:46:36.756Z,730.00
2023-05-09T04:47:36.625Z,735.00
2023-05-09T04:48:36.617Z,741.00
2023-05-09T04:49:36.609Z,746.00
2023-05-09T04:50:36.619Z,751.00
2023-05-09T04:51:36.573Z,748.00
2023-05-09T04:52:36.604Z,754.00
2023-05-09T04:53:36.577Z,762.00
2023-05-09T04:54:36.550Z,769.00
2023-05-09T04:55:36.545Z,765.00
2023-05-09T04:56:36.524Z,770.00
2023-05-09T04:57:36.517Z,774.00
2023-05-09T04:58:36.520Z,773.00
2023-05-09T04:59:36.487Z,774.00
2023-05-09T05:00:36.502Z,783.00
2023-05-09T05:01:36.495Z,782.00
2023-05-09T05:02:36.551Z,783.00
2023-05-09T05:03:36.459Z,793.00
2023-05-09T05:04:36.463Z,765.00
2023-05-09T05:05:37.608Z,804.00
2023-05-09T05:06:36.428Z,792.00
2023-05-09T05:07:36.407Z,790.00
2023-05-09T05:08:36.388Z,807.00
2023-05-09T05:09:36.721Z,801.00
2023-05-09T05:10:36.370Z,794.00
2023-05-09T05:11:36.374Z,790.00
2023-05-09T05:12:36.349Z,802.00
2023-05-09T05:13:36.357Z,765.00
2023-05-09T05:14:36.361Z,829.00
2023-05-09T05:15:36.326Z,818.00
2023-05-09T05:16:36.386Z,802.00
2023-05-09T05:17:36.331Z,801.00
2023-05-09T05:18:36.281Z,820.00
2023-05-09T05:19:36.277Z,807.00
2023-05-09T05:20:36.267Z,781.00
2023-05-09T05:21:36.251Z,855.00
2023-05-09T05:22:36.278Z,833.00
2023-05-09T05:23:36.223Z,778.00
2023-05-09T05:24:36.234Z,807.00
2023-05-09T05:25:36.236Z,875.00
2023-05-09T05:26:36.205Z,814.00
2023-05-09T05:27:36.186Z,841.00
2023-05-09T05:28:36.186Z,801.00
2023-05-09T05:29:36.163Z,851.00
2023-05-09T05:30:36.141Z,801.00
2023-05-09T05:31:36.170Z,849.00
2023-05-09T05:32:36.230Z,858.00
2023-05-09T05:33:36.105Z,836.00
2023-05-09T05:34:36.107Z,835.00
2023-05-09T05:35:36.127Z,826.00
2023-05-09T05:36:36.092Z,850.00
2023-05-09T05:37:36.060Z,840.00
2023-05-09T05:38:36.074Z,845.00
2023-05-09T05:39:36.077Z,848.00
2023-05-09T05:40:36.063Z,846.00
2023-05-09T05:41:36.072Z,842.00
2023-05-09T05:42:36.128Z,859.00
2023-05-09T05:43:36.027Z,849.00
2023-05-09T05:44:36.003Z,854.00
2023-05-09T05:45:36.020Z,835.00
2023-05-09T05:46:35.975Z,848.00
2023-05-09T05:47:36.005Z,861.00
2023-05-09T05:48:36.094Z,856.00
2023-05-09T05:49:35.989Z,820.00
2023-05-09T05:50:35.933Z,918.00
2023-05-09T05:51:35.906Z,848.00
2023-05-09T05:52:35.917Z,847.00
2023-05-09T05:53:35.874Z,864.00
2023-05-09T05:54:35.888Z,786.00
2023-05-09T05:55:35.865Z,926.00
2023-05-09T05:56:35.852Z,865.00
2023-05-09T05:57:35.853Z,856.00
2023-05-09T05:58:35.868Z,774.00
2023-05-09T05:59:35.832Z,959.00
2023-05-09T06:00:35.802Z,881.00
2023-05-09T06:01:35.795Z,877.00
2023-05-09T06:02:35.845Z,915.00
2023-05-09T06:03:35.839Z,935.00
2023-05-09T06:04:35.788Z,924.00
2023-05-09T06:05:35.739Z,916.00
2023-05-09T06:06:35.752Z,894.00
2023-05-09T06:07:35.738Z,945.00
2023-05-09T06:08:35.752Z,875.00
2023-05-09T06:09:35.743Z,983.00
2023-05-09T06:10:35.724Z,993.00
2023-05-09T06:11:35.703Z,940.00
2023-05-09T06:12:35.682Z,987.00
2023-05-09T06:13:35.669Z,961.00
2023-05-09T06:14:35.689Z,952.00
2023-05-09T06:15:35.641Z,1002.00
2023-05-09T06:16:35.713Z,1042.00
2023-05-09T06:17:35.700Z,1056.00
2023-05-09T06:18:35.616Z,1061.00
2023-05-09T06:19:35.622Z,1020.00
2023-05-09T06:20:35.624Z,1046.00
2023-05-09T06:21:35.614Z,1064.00
2023-05-09T06:22:35.572Z,1074.00
2023-05-09T06:23:35.550Z,1116.00
2023-05-09T06:24:36.460Z,1074.00
2023-05-09T06:25:35.553Z,1065.00
2023-05-09T06:26:35.539Z,1082.00
2023-05-09T06:27:35.520Z,1050.00
2023-05-09T06:28:35.529Z,1114.00
2023-05-09T06:29:35.526Z,1101.00
2023-05-09T06:30:35.523Z,1096.00
2023-05-09T06:31:35.512Z,1110.00
2023-05-09T06:32:35.481Z,1162.00
2023-05-09T06:33:35.446Z,1149.00
2023-05-09T06:34:35.443Z,1100.00
2023-05-09T06:35:35.433Z,1196.00
2023-05-09T06:36:35.421Z,1163.00
2023-05-09T06:37:35.471Z,1232.00
2023-05-09T06:38:35.403Z,1158.00
2023-05-09T06:39:35.383Z,1260.00
2023-05-09T06:40:35.367Z,1199.00
2023-05-09T06:41:35.363Z,1361.00
2023-05-09T06:42:35.352Z,1270.00
2023-05-09T06:43:35.374Z,1258.00
2023-05-09T06:44:35.321Z,1243.00
2023-05-09T06:45:35.495Z,1275.00
2023-05-09T06:46:35.402Z,1277.00
2023-05-09T06:47:35.339Z,1331.00
2023-05-09T06:48:35.309Z,1262.00
2023-05-09T06:49:35.268Z,1345.00
2023-05-09T06:50:35.272Z,1388.00
2023-05-09T06:51:35.248Z,1500.00
2023-05-09T06:52:35.231Z,1482.00
2023-05-09T06:53:35.234Z,1423.00
2023-05-09T06:54:35.213Z,1411.00
2023-05-09T06:55:35.216Z,1511.00
2023-05-09T06:56:35.197Z,1592.00
2023-05-09T06:57:35.172Z,1609.00
2023-05-09T06:58:35.182Z,1514.00
2023-05-09T06:59:35.177Z,1645.00
2023-05-09T07:00:35.149Z,1572.00
2023-05-09T07:01:35.174Z,1700.00
2023-05-09T07:02:35.140Z,1804.00
2023-05-09T07:03:35.114Z,1682.00
2023-05-09T07:04:35.169Z,1724.00
2023-05-09T07:05:35.142Z,1801.00
2023-05-09T07:06:35.094Z,1694.00
2023-05-09T07:07:35.062Z,1848.00
2023-05-09T07:08:35.078Z,1832.00
2023-05-09T07:09:35.055Z,1900.00
2023-05-09T07:10:35.053Z,1921.00
2023-05-09T07:11:35.142Z,1900.00
2023-05-09T07:12:35.030Z,1960.00
2023-05-09T07:13:35.012Z,1988.00
2023-05-09T07:14:35.087Z,1997.00
2023-05-09T07:15:41.847Z,1989.00
2023-05-09T07:16:37.388Z,2178.00
2023-05-09T07:17:34.981Z,2055.00
2023-05-09T07:18:34.954Z,2150.00
2023-05-09T07:19:34.958Z,2120.00
2023-05-09T07:20:34.970Z,2078.00
2023-05-09T07:21:34.918Z,2131.00
2023-05-09T07:22:37.194Z,2185.00
2023-05-09T07:23:34.885Z,2255.00
2023-05-09T07:24:34.879Z,2209.00
2023-05-09T07:25:34.877Z,2231.00
2023-05-09T07:26:34.858Z,2224.00
2023-05-09T07:27:34.851Z,2283.00
2023-05-09T07:28:34.830Z,2254.00
2023-05-09T07:29:34.821Z,2240.00
2023-05-09T07:30:34.847Z,2306.00
2023-05-09T07:31:37.215Z,2343.00
2023-05-09T07:32:34.816Z,2324.00
2023-05-09T07:33:34.800Z,2362.00
2023-05-09T07:34:34.763Z,2375.00
2023-05-09T07:35:34.783Z,2396.00
2023-05-09T07:36:35.486Z,2432.00
2023-05-09T07:37:34.747Z,2419.00
2023-05-09T07:38:34.727Z,2368.00
2023-05-09T07:39:34.726Z,2354.00
2023-05-09T07:40:34.704Z,2452.00
2023-05-09T07:41:34.703Z,2409.00
2023-05-09T07:42:34.723Z,2512.00
2023-05-09T07:43:34.671Z,2513.00
2023-05-09T07:44:34.649Z,2452.00
2023-05-09T07:45:34.770Z,2505.00
2023-05-09T07:46:34.631Z,2476.00
2023-05-09T07:47:34.672Z,2571.00
2023-05-09T07:48:34.613Z,2514.00
2023-05-09T07:49:34.605Z,2529.00
2023-05-09T07:50:34.615Z,2588.00
2023-05-09T07:51:34.600Z,2426.00
2023-05-09T07:52:34.575Z,2612.00
2023-05-09T07:53:34.581Z,2625.00
2023-05-09T07:54:34.545Z,2661.00
2023-05-09T07:55:34.542Z,2603.00
2023-05-09T07:56:34.530Z,2554.00
2023-05-09T07:57:34.523Z,2569.00
2023-05-09T07:58:34.508Z,2647.00
2023-05-09T07:59:34.516Z,2679.00
2023-05-09T08:00:34.495Z,2785.00
2023-05-09T08:01:34.477Z,2682.00
2023-05-09T08:02:34.624Z,2747.00
2023-05-09T08:03:34.527Z,2738.00
2023-05-09T08:04:34.564Z,2687.00
2023-05-09T08:05:34.433Z,2665.00
2023-05-09T08:06:34.405Z,2754.00
2023-05-09T08:07:34.424Z,2686.00
2023-05-09T08:08:34.417Z,2861.00
2023-05-09T08:09:34.380Z,2712.00
2023-05-09T08:10:34.392Z,2598.00
2023-05-09T08:11:34.374Z,2747.00
2023-05-09T08:12:34.337Z,2776.00
2023-05-09T08:13:34.350Z,2809.00
2023-05-09T08:14:34.328Z,2784.00
2023-05-09T08:15:34.339Z,2780.00
2023-05-09T08:16:34.367Z,2795.00
2023-05-09T08:17:34.317Z,2892.00
2023-05-09T08:18:34.268Z,2815.00
2023-05-09T08:19:34.283Z,2874.00
2023-05-09T08:20:34.251Z,2794.00
2023-05-09T08:21:34.284Z,2776.00
2023-05-09T08:22:34.224Z,2885.00
2023-05-09T08:23:34.250Z,2822.00
2023-05-09T08:24:34.225Z,2836.00
2023-05-09T08:25:34.215Z,2828.00
2023-05-09T08:26:34.199Z,2786.00
2023-05-09T08:27:34.190Z,2928.00
2023-05-09T08:28:34.186Z,2736.00
2023-05-09T08:29:34.171Z,2772.00
2023-05-09T08:30:34.155Z,2873.00
2023-05-09T08:31:34.210Z,2819.00
2023-05-09T08:32:34.172Z,2914.00
2023-05-09T08:33:34.114Z,2991.00
2023-05-09T08:34:34.123Z,2893.00
2023-05-09T08:35:34.101Z,2980.00
2023-05-09T08:36:34.104Z,3108.00
2023-05-09T08:37:34.097Z,2861.00
2023-05-09T08:38:34.069Z,2928.00
2023-05-09T08:39:34.054Z,2959.00
2023-05-09T08:40:34.080Z,2995.00
2023-05-09T08:41:34.080Z,3010.00
2023-05-09T08:42:34.023Z,2999.00
2023-05-09T08:43:34.048Z,3118.00
2023-05-09T08:44:34.001Z,3033.00
2023-05-09T08:45:33.975Z,3013.00
2023-05-09T08:46:34.042Z,3119.00
2023-05-09T08:47:33.998Z,3027.00
2023-05-09T08:48:35.923Z,2996.00
2023-05-09T08:49:33.944Z,3138.00
2023-05-09T08:50:33.921Z,3121.00
2023-05-09T08:51:33.916Z,2994.00
2023-05-09T08:52:33.903Z,3099.00
2023-05-09T08:53:33.898Z,3387.00
2023-05-09T08:54:33.888Z,3393.00
2023-05-09T08:55:33.874Z,3248.00
2023-05-09T08:56:33.873Z,3245.00
2023-05-09T08:57:33.845Z,3292.00
2023-05-09T08:58:33.837Z,3759.00
2023-05-09T08:59:33.824Z,3337.00
2023-05-09T09:00:33.821Z,3729.00
2023-05-09T09:01:33.884Z,3453.00
2023-05-09T09:02:33.846Z,3566.00
2023-05-09T09:03:33.785Z,3716.00
2023-05-09T09:04:33.791Z,3630.00
2023-05-09T09:05:41.205Z,3828.00
2023-05-09T09:06:33.753Z,3822.00
2023-05-09T09:07:33.739Z,3853.00
2023-05-09T09:08:33.733Z,4071.00
2023-05-09T09:09:33.743Z,3754.00
2023-05-09T09:10:33.719Z,3990.00
2023-05-09T09:11:33.743Z,4055.00
2023-05-09T09:12:33.689Z,4228.00
2023-05-09T09:13:33.750Z,4222.00
2023-05-09T09:14:33.655Z,3918.00
2023-05-09T09:15:33.652Z,4335.00
2023-05-09T09:16:33.664Z,4013.00
2023-05-09T09:17:33.656Z,4089.00
2023-05-09T09:18:33.608Z,4159.00
2023-05-09T09:19:33.628Z,4086.00
2023-05-09T09:20:33.585Z,4233.00
2023-05-09T09:21:33.607Z,4281.00
2023-05-09T09:22:33.573Z,4013.00
2023-05-09T09:23:33.554Z,4440.00
2023-05-09T09:24:33.587Z,4402.00
2023-05-09T09:25:33.539Z,4116.00
2023-05-09T09:26:33.567Z,3994.00
2023-05-09T09:27:33.515Z,3950.00
2023-05-09T09:28:33.504Z,3935.00
2023-05-09T09:29:33.496Z,3578.00
2023-05-09T09:30:33.473Z,4325.00
2023-05-09T09:31:33.566Z,3966.00
2023-05-09T09:32:33.508Z,3916.00
2023-05-09T09:33:33.444Z,3937.00
2023-05-09T09:34:33.506Z,3933.00
2023-05-09T09:35:33.430Z,3932.00
2023-05-09T09:36:33.473Z,3970.00
2023-05-09T09:37:33.414Z,4096.00
2023-05-09T09:38:33.398Z,3988.00
2023-05-09T09:39:34.143Z,3856.00
2023-05-09T09:40:33.379Z,3871.00
2023-05-09T09:41:33.480Z,4084.00
2023-05-09T09:42:33.367Z,4007.00
2023-05-09T09:43:33.339Z,4010.00
2023-05-09T09:44:33.325Z,4065.00
2023-05-09T09:45:33.336Z,4365.00
2023-05-09T09:46:33.411Z,4409.00
2023-05-09T09:47:33.371Z,4322.00
2023-05-09T09:48:33.470Z,4207.00
2023-05-09T09:49:33.272Z,4257.00
2023-05-09T09:50:33.254Z,4305.00
2023-05-09T09:51:33.263Z,4145.00
2023-05-09T09:52:33.243Z,4236.00
2023-05-09T09:53:33.238Z,4306.00
2023-05-09T09:54:33.210Z,4362.00
2023-05-09T09:55:33.207Z,4338.00
2023-05-09T09:56:33.208Z,4286.00
2023-05-09T09:57:33.195Z,4316.00
2023-05-09T09:58:33.174Z,4210.00
2023-05-09T09:59:33.161Z,4367.00
2023-05-09T10:00:33.144Z,4177.00
2023-05-09T10:01:33.169Z,4384.00
2023-05-09T10:02:33.165Z,4377.00
2023-05-09T10:03:33.214Z,4391.00
2023-05-09T10:04:33.100Z,4520.00
2023-05-09T10:05:33.126Z,4410.00
2023-05-09T10:06:33.082Z,4688.00
2023-05-09T10:07:33.094Z,4645.00
2023-05-09T10:08:33.062Z,4641.00
2023-05-09T10:09:33.053Z,4752.00
2023-05-09T10:10:33.059Z,4662.00
2023-05-09T10:11:33.030Z,4808.00
2023-05-09T10:12:33.043Z,5068.00
2023-05-09T10:13:33.026Z,5003.00
2023-05-09T10:14:35.165Z,5017.00
2023-05-09T10:15:41.313Z,5324.00
2023-05-09T10:16:43.039Z,4969.00
2023-05-09T10:17:33.073Z,5497.00
2023-05-09T10:18:33.116Z,5187.00
2023-05-09T10:19:32.983Z,5080.00
2023-05-09T10:20:32.930Z,5475.00
2023-05-09T10:21:32.912Z,5337.00
2023-05-09T10:22:33.018Z,5271.00
2023-05-09T10:23:32.978Z,5841.00
2023-05-09T10:24:32.877Z,5621.00
2023-05-09T10:25:32.884Z,5767.00
2023-05-09T10:26:32.924Z,5530.00
2023-05-09T10:27:32.891Z,5878.00
2023-05-09T10:28:32.847Z,5535.00
2023-05-09T10:29:32.848Z,6302.00
2023-05-09T10:30:34.093Z,5543.00
2023-05-09T10:31:32.833Z,6322.00
2023-05-09T10:32:32.817Z,5805.00
2023-05-09T10:33:32.777Z,6414.00
2023-05-09T10:34:32.770Z,5865.00
2023-05-09T10:35:32.765Z,6448.00
2023-05-09T10:36:32.741Z,6551.00
2023-05-09T10:37:33.547Z,6892.00
2023-05-09T10:38:32.714Z,6317.00
2023-05-09T10:39:32.717Z,6597.00
2023-05-09T10:40:32.699Z,6643.00
2023-05-09T10:41:32.691Z,6850.00
2023-05-09T10:42:32.695Z,6801.00
2023-05-09T10:43:34.200Z,6868.00
2023-05-09T10:44:32.652Z,6949.00
2023-05-09T10:45:32.650Z,6364.00
2023-05-09T10:46:32.735Z,6853.00
2023-05-09T10:47:32.656Z,7355.00
2023-05-09T10:48:32.613Z,6432.00
2023-05-09T10:49:34.311Z,6883.00
2023-05-09T10:50:32.590Z,6884.00
2023-05-09T10:51:32.595Z,6942.00
2023-05-09T10:52:32.557Z,6988.00
2023-05-09T10:53:32.555Z,6909.00
2023-05-09T10:54:32.545Z,6909.00
2023-05-09T10:55:32.524Z,6986.00
2023-05-09T10:56:32.538Z,6970.00
2023-05-09T10:57:32.550Z,6959.00
2023-05-09T10:58:32.507Z,7010.00
2023-05-09T10:59:32.494Z,6991.00
2023-05-09T11:00:32.548Z,6922.00
2023-05-09T11:01:32.467Z,6979.00
2023-05-09T11:02:32.620Z,7014.00
2023-05-09T11:03:32.559Z,6991.00
2023-05-09T11:04:32.448Z,6935.00
2023-05-09T11:05:32.417Z,7023.00
2023-05-09T11:06:32.399Z,7007.00
2023-05-09T11:07:32.395Z,7056.00
2023-05-09T11:08:32.395Z,6953.00
2023-05-09T11:09:32.384Z,6824.00
2023-05-09T11:10:32.404Z,7012.00
2023-05-09T11:11:32.367Z,7022.00
2023-05-09T11:12:32.347Z,6946.00
2023-05-09T11:13:32.422Z,7080.00
2023-05-09T11:14:32.401Z,6943.00
2023-05-09T11:15:32.314Z,6895.00
2023-05-09T11:16:32.307Z,6999.00
2023-05-09T11:17:32.419Z,6989.00
2023-05-09T11:18:32.293Z,6987.00
2023-05-09T11:19:32.272Z,6949.00
2023-05-09T11:20:32.280Z,6931.00
2023-05-09T11:21:32.245Z,6976.00
2023-05-09T11:22:32.303Z,6914.00
2023-05-09T11:23:32.237Z,6922.00
2023-05-09T11:24:32.256Z,6913.00
2023-05-09T11:25:32.199Z,6944.00
2023-05-09T11:26:32.187Z,6927.00
2023-05-09T11:27:32.176Z,6919.00
2023-05-09T11:28:32.195Z,6903.00
2023-05-09T11:29:32.151Z,6955.00
2023-05-09T11:30:32.145Z,6900.00
2023-05-09T11:31:32.187Z,6946.00
2023-05-09T11:32:32.186Z,6911.00
2023-05-09T11:33:32.128Z,6819.00
2023-05-09T11:34:32.103Z,7044.00
2023-05-09T11:35:32.109Z,6777.00
2023-05-09T11:36:32.093Z,6877.00
2023-05-09T11:37:32.073Z,7005.00
2023-05-09T11:38:32.066Z,6933.00
2023-05-09T11:39:32.053Z,6928.00
2023-05-09T11:40:32.041Z,6949.00
2023-05-09T11:41:32.027Z,6953.00
2023-05-09T11:42:32.010Z,6929.00
2023-05-09T11:43:32.001Z,7029.00
2023-05-09T11:44:31.993Z,6996.00
2023-05-09T11:45:31.971Z,6943.00
2023-05-09T11:46:32.048Z,7051.00
2023-05-09T11:47:31.969Z,7063.00
2023-05-09T11:48:31.944Z,7043.00
2023-05-09T11:49:31.959Z,7208.00
2023-05-09T11:50:31.984Z,7185.00
2023-05-09T11:51:31.911Z,7270.00
2023-05-09T11:52:31.904Z,7235.00
2023-05-09T11:53:31.886Z,7444.00
2023-05-09T11:54:31.904Z,7346.00
2023-05-09T11:55:31.876Z,7434.00
2023-05-09T11:56:31.856Z,7514.00
2023-05-09T11:57:31.855Z,7786.00
2023-05-09T11:58:31.869Z,7928.00
2023-05-09T11:59:31.817Z,7886.00
2023-05-09T12:00:31.832Z,7892.00
2023-05-09T12:01:31.791Z,8061.00
2023-05-09T12:02:31.836Z,7981.00
2023-05-09T12:03:31.895Z,7977.00
2023-05-09T12:04:31.858Z,7969.00
2023-05-09T12:05:31.760Z,7787.00
2023-05-09T12:06:31.740Z,8286.00
2023-05-09T12:07:31.727Z,9321.00
2023-05-09T12:08:31.740Z,10151.00
2023-05-09T12:09:31.711Z,10379.00
2023-05-09T12:10:31.745Z,9794.00
2023-05-09T12:11:31.680Z,9108.00
2023-05-09T12:12:31.679Z,9720.00
2023-05-09T12:13:31.768Z,10244.00
2023-05-09T12:14:31.680Z,10035.00
2023-05-09T12:15:31.653Z,10400.00
2023-05-09T12:16:31.662Z,9971.00
2023-05-09T12:17:31.656Z,10253.00
2023-05-09T12:18:31.673Z,11066.00
2023-05-09T12:19:31.601Z,10577.00
2023-05-09T12:20:31.603Z,10420.00
2023-05-09T12:21:31.589Z,10358.00
2023-05-09T12:22:31.564Z,10413.00
2023-05-09T12:23:31.570Z,11487.00
2023-05-09T12:24:31.565Z,11450.00
2023-05-09T12:25:31.556Z,10950.00
2023-05-09T12:26:31.553Z,10913.00
2023-05-09T12:27:31.526Z,11910.00
2023-05-09T12:28:31.511Z,12261.00
2023-05-09T12:29:31.495Z,11958.00
2023-05-09T12:30:31.507Z,12406.00
2023-05-09T12:31:31.490Z,13065.00
2023-05-09T12:32:31.547Z,11886.00
2023-05-09T12:33:31.440Z,12295.00
2023-05-09T12:34:31.438Z,13408.00
2023-05-09T12:35:31.483Z,13767.00
2023-05-09T12:36:31.418Z,13534.00
2023-05-09T12:37:31.410Z,14342.00
2023-05-09T12:38:31.455Z,15336.00
2023-05-09T12:39:31.384Z,15651.00
2023-05-09T12:40:31.397Z,15459.00
2023-05-09T12:41:39.291Z,15104.00
2023-05-09T12:42:31.364Z,15097.00
2023-05-09T12:43:31.338Z,15847.00
2023-05-09T12:44:31.322Z,16251.00
2023-05-09T12:45:31.343Z,17017.00
2023-05-09T12:46:31.325Z,16877.00
2023-05-09T12:47:31.395Z,16308.00
2023-05-09T12:48:31.282Z,16560.00
2023-05-09T12:49:31.316Z,17412.00
2023-05-09T12:50:31.288Z,15597.00
2023-05-09T12:51:31.256Z,18756.00
2023-05-09T12:52:31.251Z,19450.00
2023-05-09T12:53:31.231Z,17939.00
2023-05-09T12:54:31.898Z,18115.00
2023-05-09T12:55:31.216Z,20410.00
2023-05-09T12:56:31.200Z,20628.00
2023-05-09T12:57:31.760Z,18342.00
2023-05-09T12:58:31.209Z,20215.00
2023-05-09T12:59:31.167Z,22234.00
2023-05-09T13:00:31.245Z,20360.00
2023-05-09T13:01:31.178Z,22799.00
2023-05-09T13:02:31.194Z,26376.00
2023-05-09T13:03:31.291Z,23089.00
2023-05-09T13:04:31.119Z,23298.00
2023-05-09T13:05:31.121Z,23394.00
2023-05-09T13:06:31.087Z,20010.00
2023-05-09T13:07:31.099Z,23666.00
2023-05-09T13:08:31.082Z,24779.00
2023-05-09T13:09:31.048Z,24481.00
2023-05-09T13:10:31.092Z,27546.00
2023-05-09T13:11:31.041Z,22456.00
2023-05-09T13:12:31.020Z,24699.00
2023-05-09T13:13:31.008Z,27519.00
2023-05-09T13:14:31.055Z,26792.00
2023-05-09T13:15:31.001Z,24884.00
2023-05-09T13:16:31.101Z,29447.00
2023-05-09T13:17:30.993Z,32920.00
2023-05-09T13:18:30.960Z,30642.00
2023-05-09T13:19:30.943Z,30940.00
2023-05-09T13:20:30.941Z,31361.00
2023-05-09T13:21:30.933Z,27575.00
2023-05-09T13:22:30.934Z,26466.00
2023-05-09T13:23:30.911Z,28308.00
2023-05-09T13:24:30.918Z,32574.00
2023-05-09T13:25:30.891Z,26737.00
2023-05-09T13:26:30.944Z,27193.00
2023-05-09T13:27:30.883Z,34676.00
2023-05-09T13:28:30.850Z,35192.00
2023-05-09T13:29:30.848Z,31863.00
2023-05-09T13:30:30.866Z,31048.00
2023-05-09T13:31:30.846Z,32718.00
2023-05-09T13:32:30.829Z,35840.00
2023-05-09T13:33:30.858Z,37795.00
2023-05-09T13:34:30.798Z,39610.00
2023-05-09T13:35:30.786Z,37482.00
2023-05-09T13:36:30.766Z,31487.00
2023-05-09T13:37:30.758Z,33981.00
2023-05-09T13:38:30.793Z,72373.00
2023-05-09T13:39:30.740Z,73349.00
2023-05-09T13:40:31.201Z,74618.00
2023-05-09T13:41:30.722Z,73707.00
2023-05-09T13:42:30.722Z,73063.00
2023-05-09T13:43:30.689Z,73201.00
2023-05-09T13:44:30.720Z,73553.00
2023-05-09T13:45:30.672Z,73641.00
2023-05-09T13:46:30.723Z,73769.00
2023-05-09T13:47:30.691Z,75447.00
2023-05-09T13:48:30.652Z,75995.00
2023-05-09T13:49:30.616Z,74457.00
2023-05-09T13:50:30.627Z,73777.00
2023-05-09T13:51:30.641Z,74212.00
2023-05-09T13:52:30.613Z,73701.00
2023-05-09T13:53:30.596Z,72934.00
2023-05-09T13:54:30.582Z,33363.00
2023-05-09T13:55:30.586Z,73450.00
2023-05-09T13:56:30.568Z,74462.00
2023-05-09T13:57:30.554Z,75218.00
2023-05-09T13:58:30.562Z,74105.00
2023-05-09T13:59:30.531Z,73197.00
2023-05-09T14:00:30.571Z,73542.00
2023-05-09T14:01:30.565Z,75062.00
2023-05-09T14:02:30.544Z,74720.00
2023-05-09T14:03:31.416Z,73718.00
2023-05-09T14:04:30.481Z,74156.00
2023-05-09T14:05:30.480Z,75694.00
2023-05-09T14:06:30.481Z,75613.00
2023-05-09T14:07:30.438Z,74389.00
2023-05-09T14:08:30.449Z,74974.00
2023-05-09T14:09:30.437Z,76365.00
2023-05-09T14:10:30.428Z,77066.00
2023-05-09T14:11:30.426Z,76802.00
2023-05-09T14:12:30.417Z,75842.00
2023-05-09T14:13:30.471Z,76043.00
2023-05-09T14:14:30.518Z,77146.00
2023-05-09T14:15:30.381Z,76379.00
2023-05-09T14:16:30.449Z,75544.00
2023-05-09T14:17:30.403Z,77166.00
2023-05-09T14:18:30.340Z,77326.00
2023-05-09T14:19:30.335Z,76095.00
2023-05-09T14:20:30.319Z,76182.00
2023-05-09T14:21:30.336Z,77523.00
2023-05-09T14:22:30.352Z,77398.00
2023-05-09T14:23:30.302Z,77136.00
2023-05-09T14:24:30.283Z,76457.00
2023-05-09T14:25:30.254Z,75989.00
2023-05-09T14:26:30.286Z,76694.00
2023-05-09T14:27:30.241Z,77423.00
2023-05-09T14:28:30.229Z,77414.00
2023-05-09T14:29:30.370Z,78089.00
2023-05-09T14:30:30.210Z,77675.00
2023-05-09T14:31:30.224Z,76969.00
2023-05-09T14:32:30.196Z,76202.00
2023-05-09T14:33:30.187Z,75599.00
2023-05-09T14:34:30.178Z,75346.00
2023-05-09T14:35:30.214Z,76407.00
2023-05-09T14:36:30.184Z,78571.00
2023-05-09T14:37:30.128Z,79205.00
2023-05-09T14:38:30.131Z,78490.00
2023-05-09T14:39:30.114Z,78775.00
2023-05-09T14:40:30.139Z,78592.00
2023-05-09T14:41:30.112Z,79005.00
2023-05-09T14:42:30.106Z,79176.00
2023-05-09T14:43:30.071Z,71613.00
2023-05-09T14:44:30.067Z,21930.00
2023-05-09T14:45:30.054Z,68557.00
2023-05-09T14:46:30.091Z,9628.00
2023-05-09T14:47:30.071Z,75156.00
2023-05-09T14:48:30.029Z,79579.00
2023-05-09T14:49:30.014Z,70102.00
2023-05-09T14:50:30.009Z,26441.00
2023-05-09T14:51:30.006Z,36531.00
2023-05-09T14:52:29.982Z,7415.00
2023-05-09T14:53:29.966Z,72415.00
2023-05-09T14:54:29.967Z,24320.00
2023-05-09T14:55:29.967Z,75625.00
2023-05-09T14:56:29.956Z,78726.00
2023-05-09T14:57:29.932Z,65277.00
2023-05-09T14:58:29.922Z,7837.00
2023-05-09T14:59:29.912Z,36941.00
2023-05-09T15:00:30.106Z,7588.00
2023-05-09T15:01:29.936Z,74323.00
2023-05-09T15:02:29.956Z,80969.00
2023-05-09T15:03:29.888Z,81045.00
2023-05-09T15:04:29.926Z,80876.00
2023-05-09T15:05:29.857Z,80854.00
2023-05-09T15:06:29.848Z,80328.00
2023-05-09T15:07:29.826Z,79303.00
2023-05-09T15:08:29.844Z,79059.00
2023-05-09T15:09:29.829Z,79678.00
2023-05-09T15:10:29.816Z,80282.00
2023-05-09T15:11:36.441Z,80421.00
2023-05-09T15:12:29.852Z,80922.00
2023-05-09T15:13:29.914Z,81274.00
2023-05-09T15:14:29.799Z,80969.00
2023-05-09T15:15:29.743Z,80287.00
2023-05-09T15:16:29.788Z,79004.00
2023-05-09T15:17:29.759Z,79284.00
2023-05-09T15:18:29.730Z,81125.00
2023-05-09T15:19:29.696Z,81121.00
2023-05-09T15:20:29.695Z,80187.00
2023-05-09T15:21:29.704Z,79634.00
2023-05-09T15:22:29.671Z,79702.00
2023-05-09T15:23:29.732Z,80767.00
2023-05-09T15:24:29.712Z,80389.00
2023-05-09T15:25:29.640Z,80380.00
2023-05-09T15:26:29.678Z,80022.00
2023-05-09T15:27:29.640Z,79224.00
2023-05-09T15:28:29.688Z,79033.00
2023-05-09T15:29:29.607Z,79755.00
2023-05-09T15:30:29.623Z,73369.00
2023-05-09T15:31:31.103Z,16494.00
2023-05-09T15:32:29.610Z,80578.00
2023-05-09T15:33:29.580Z,80402.00
2023-05-09T15:34:29.553Z,80254.00
2023-05-09T15:35:29.567Z,80861.00
2023-05-09T15:36:29.607Z,80860.00
2023-05-09T15:37:29.544Z,80098.00
2023-05-09T15:38:29.531Z,79343.00
2023-05-09T15:39:29.514Z,79416.00
2023-05-09T15:40:29.547Z,79399.00
2023-05-09T15:41:29.512Z,80249.00
2023-05-09T15:42:29.479Z,80434.00
2023-05-09T15:43:29.455Z,79909.00
2023-05-09T15:44:29.656Z,79592.00
2023-05-09T15:45:29.469Z,80136.00
2023-05-09T15:46:29.543Z,80523.00
2023-05-09T15:47:29.512Z,80636.00
2023-05-09T15:48:29.411Z,81096.00
2023-05-09T15:49:29.439Z,82811.00
2023-05-09T15:50:29.383Z,83243.00
2023-05-09T15:51:29.372Z,83901.00
2023-05-09T15:52:29.493Z,82848.00
2023-05-09T15:53:29.387Z,82169.00
2023-05-09T15:54:29.391Z,82928.00
2023-05-09T15:55:29.360Z,83285.00
2023-05-09T15:56:29.320Z,83812.00
2023-05-09T15:57:29.351Z,83657.00
2023-05-09T15:58:29.306Z,83251.00
2023-05-09T15:59:29.304Z,82877.00
2023-05-09T16:00:29.298Z,82737.00
2023-05-09T16:01:29.286Z,83343.00
2023-05-09T16:02:29.349Z,83890.00